createdAt,value
2023-02-19T00:00:32.556Z,98555.80
2023-02-19T00:03:42.121Z,98552.40
2023-02-19T00:06:51.499Z,98549.00
2023-02-19T00:10:01.714Z,98540.20
2023-02-19T00:13:09.923Z,98526.40
2023-02-19T00:16:22.907Z,98522.80
2023-02-19T00:19:36.096Z,98523.40
2023-02-19T00:22:44.519Z,98530.80
2023-02-19T00:26:03.203Z,98527.40
2023-02-19T00:29:22.901Z,98527.40
2023-02-19T00:32:31.200Z,98524.80
2023-02-19T00:35:53.976Z,98521.00
2023-02-19T00:39:02.190Z,98521.80
2023-02-19T00:42:12.505Z,98526.60
2023-02-19T00:45:22.509Z,98525.80
2023-02-19T00:48:36.144Z,98526.60
2023-02-19T00:52:19.432Z,98531.00
2023-02-19T00:55:29.401Z,98522.00
2023-02-19T00:58:37.825Z,98510.40
2023-02-19T01:01:46.740Z,98510.80
2023-02-19T01:04:57.433Z,98516.40
2023-02-19T01:11:18.149Z,98510.60
2023-02-19T01:14:26.003Z,98507.80
2023-02-19T01:17:34.287Z,98502.20
2023-02-19T01:20:45.922Z,98496.00
2023-02-19T01:23:55.769Z,98491.40
2023-02-19T01:27:03.688Z,98494.00
2023-02-19T01:30:13.950Z,98496.40
2023-02-19T01:33:21.937Z,98510.60
2023-02-19T01:36:33.724Z,98523.00
2023-02-19T01:39:42.018Z,98526.00
2023-02-19T01:42:52.192Z,98522.40
2023-02-19T01:46:02.490Z,98521.00
2023-02-19T01:49:17.658Z,98515.00
2023-02-19T01:52:32.053Z,98506.80
2023-02-19T01:55:41.043Z,98504.40
2023-02-19T01:58:50.189Z,98500.60
2023-02-19T02:01:58.344Z,98507.40
2023-02-19T02:05:10.504Z,98520.00
2023-02-19T02:08:50.053Z,98513.60
2023-02-19T02:11:58.225Z,98495.00
2023-02-19T02:15:08.457Z,98485.80
2023-02-19T02:18:29.912Z,98480.20
2023-02-19T02:22:13.096Z,98483.00
2023-02-19T02:26:11.509Z,98483.40
2023-02-19T02:30:05.402Z,98481.60
2023-02-19T02:33:28.620Z,98484.00
2023-02-19T02:36:42.880Z,98480.80
2023-02-19T02:39:52.578Z,98470.00
2023-02-19T02:43:03.087Z,98475.20
2023-02-19T02:46:17.959Z,98472.60
2023-02-19T02:49:28.920Z,98473.00
2023-02-19T02:52:57.628Z,98464.20
2023-02-19T02:56:07.498Z,98469.00
2023-02-19T02:59:24.648Z,98465.80
2023-02-19T03:02:38.320Z,98460.80
2023-02-19T03:05:53.602Z,98463.80
2023-02-19T03:09:17.680Z,98462.00
2023-02-19T03:12:46.509Z,98469.40
2023-02-19T03:16:21.040Z,98478.20
2023-02-19T03:19:36.792Z,98472.40
2023-02-19T03:22:48.935Z,98475.00
2023-02-19T03:26:06.743Z,98461.40
2023-02-19T03:29:26.335Z,98461.80
2023-02-19T03:32:41.494Z,98462.60
2023-02-19T03:35:54.910Z,98480.80
2023-02-19T03:39:23.101Z,98490.40
2023-02-19T03:42:46.276Z,98492.40
2023-02-19T03:46:10.439Z,98483.00
2023-02-19T03:49:27.318Z,98488.60
2023-02-19T03:52:44.411Z,98484.40
2023-02-19T03:56:09.407Z,98489.80
2023-02-19T03:59:30.641Z,98492.80
2023-02-19T04:02:44.691Z,98487.60
2023-02-19T04:06:01.211Z,98494.60
2023-02-19T04:09:15.981Z,98504.20
2023-02-19T04:12:24.788Z,98502.80
2023-02-19T04:15:37.986Z,98506.60
2023-02-19T04:18:51.371Z,98496.60
2023-02-19T04:22:02.936Z,98494.80
2023-02-19T04:25:14.153Z,98490.00
2023-02-19T04:28:23.096Z,98488.60
2023-02-19T04:31:36.517Z,98498.80
2023-02-19T04:34:45.083Z,98502.60
2023-02-19T04:37:53.102Z,98504.40
2023-02-19T04:41:01.850Z,98512.20
2023-02-19T04:44:10.177Z,98513.00
2023-02-19T04:47:19.012Z,98509.20
2023-02-19T04:50:27.402Z,98516.00
2023-02-19T04:53:35.476Z,98513.40
2023-02-19T04:56:43.998Z,98507.40
2023-02-19T04:59:52.733Z,98498.20
2023-02-19T05:03:00.790Z,98492.80
2023-02-19T05:06:12.146Z,98482.40
2023-02-19T05:09:20.149Z,98478.20
2023-02-19T05:12:28.409Z,98488.40
2023-02-19T05:15:36.587Z,98477.60
2023-02-19T05:18:46.923Z,98486.40
2023-02-19T05:21:55.359Z,98484.20
2023-02-19T05:25:03.568Z,98480.20
2023-02-19T05:28:21.102Z,98475.60
2023-02-19T05:31:31.172Z,98484.00
2023-02-19T05:34:39.376Z,98480.40
2023-02-19T05:37:48.701Z,98481.20
2023-02-19T05:40:56.708Z,98485.20
2023-02-19T05:44:04.808Z,98488.60
2023-02-19T05:47:14.259Z,98491.60
2023-02-19T05:50:22.580Z,98490.60
2023-02-19T05:53:31.718Z,98495.80
2023-02-19T05:56:42.412Z,98494.60
2023-02-19T05:59:50.624Z,98496.40
2023-02-19T06:03:00.678Z,98494.80
2023-02-19T06:06:10.806Z,98492.00
2023-02-19T06:09:19.648Z,98491.40
2023-02-19T06:12:28.350Z,98490.60
2023-02-19T06:15:37.718Z,98482.60
2023-02-19T06:18:45.934Z,98481.80
2023-02-19T06:21:56.083Z,98489.80
2023-02-19T06:25:03.369Z,98489.20
2023-02-19T06:28:11.836Z,98486.00
2023-02-19T06:31:21.797Z,98477.40
2023-02-19T06:34:30.565Z,98480.40
2023-02-19T06:37:39.283Z,98481.40
2023-02-19T06:40:47.192Z,98484.20
2023-02-19T06:43:55.147Z,98484.80
2023-02-19T06:47:05.513Z,98496.60
2023-02-19T06:50:13.678Z,98494.60
2023-02-19T06:53:22.190Z,98492.20
2023-02-19T06:56:33.000Z,98491.00
2023-02-19T06:59:41.796Z,98494.00
2023-02-19T07:02:50.089Z,98495.80
2023-02-19T07:06:00.521Z,98497.00
2023-02-19T07:09:11.372Z,98501.80
2023-02-19T07:12:20.989Z,98493.00
2023-02-19T07:15:30.679Z,98493.80
2023-02-19T07:18:39.149Z,98497.20
2023-02-19T07:21:47.878Z,98490.40
2023-02-19T07:24:56.537Z,98485.80
2023-02-19T07:28:09.242Z,98480.20
2023-02-19T07:31:19.969Z,98482.00
2023-02-19T07:34:31.737Z,98477.60
2023-02-19T07:37:47.379Z,98484.40
2023-02-19T07:41:01.517Z,98484.20
2023-02-19T07:44:13.724Z,98482.20
2023-02-19T07:47:45.731Z,98483.40
2023-02-19T07:51:01.117Z,98485.60
2023-02-19T07:54:14.108Z,98492.80
2023-02-19T07:57:23.439Z,98506.20
2023-02-19T08:00:33.603Z,98507.40
2023-02-19T08:03:42.584Z,98509.60
2023-02-19T08:07:19.162Z,98505.00
2023-02-19T08:10:46.368Z,98511.40
2023-02-19T08:13:55.474Z,98515.20
2023-02-19T08:17:04.641Z,98522.40
2023-02-19T08:20:15.343Z,98521.80
2023-02-19T08:23:24.019Z,98532.00
2023-02-19T08:26:32.182Z,98521.80
2023-02-19T08:29:40.468Z,98515.00
2023-02-19T08:32:48.467Z,98519.60
2023-02-19T08:35:56.670Z,98521.60
2023-02-19T08:39:04.705Z,98515.00
2023-02-19T08:42:13.293Z,98512.00
2023-02-19T08:45:29.978Z,98514.40
2023-02-19T08:48:38.845Z,98516.20
2023-02-19T08:51:46.755Z,98505.20
2023-02-19T08:54:55.591Z,98511.80
2023-02-19T08:58:06.174Z,98506.00
2023-02-19T09:01:18.866Z,98507.60
2023-02-19T09:04:27.445Z,98509.40
2023-02-19T09:07:41.631Z,98509.20
2023-02-19T09:11:22.156Z,98512.20
2023-02-19T09:14:32.484Z,98517.20
2023-02-19T09:17:43.874Z,98508.00
2023-02-19T09:20:52.297Z,98502.00
2023-02-19T09:24:00.469Z,98507.60
2023-02-19T09:27:10.992Z,98509.60
2023-02-19T09:30:19.057Z,98504.00
2023-02-19T09:33:27.507Z,98500.00
2023-02-19T09:36:35.522Z,98500.60
2023-02-19T09:39:43.879Z,98504.00
2023-02-19T09:42:53.460Z,98504.00
2023-02-19T09:46:12.722Z,98495.60
2023-02-19T09:49:27.705Z,98492.80
2023-02-19T09:52:43.403Z,98491.60
2023-02-19T09:56:00.650Z,98491.00
2023-02-19T09:59:21.711Z,98489.80
2023-02-19T10:02:32.847Z,98477.60
2023-02-19T10:05:43.006Z,98471.80
2023-02-19T10:08:54.756Z,98467.80
2023-02-19T10:12:04.249Z,98465.80
2023-02-19T10:15:22.240Z,98460.40
2023-02-19T10:18:40.087Z,98459.20
2023-02-19T10:21:50.089Z,98455.40
2023-02-19T10:25:00.958Z,98459.20
2023-02-19T10:28:15.582Z,98458.40
2023-02-19T10:31:26.504Z,98444.20
2023-02-19T10:34:35.104Z,98450.60
2023-02-19T10:37:51.175Z,98447.80
2023-02-19T10:41:15.640Z,98446.60
2023-02-19T10:44:29.762Z,98438.00
2023-02-19T10:47:58.969Z,98424.00
2023-02-19T10:51:13.253Z,98427.40
2023-02-19T10:54:31.474Z,98429.00
2023-02-19T10:57:39.677Z,98414.20
2023-02-19T11:00:47.702Z,98425.20
2023-02-19T11:04:18.503Z,98423.00
2023-02-19T11:07:29.570Z,98410.80
2023-02-19T11:10:47.056Z,98416.80
2023-02-19T11:14:06.320Z,98413.00
2023-02-19T11:17:30.971Z,98408.40
2023-02-19T11:20:58.665Z,98406.60
2023-02-19T11:24:24.252Z,98403.20
2023-02-19T11:27:33.427Z,98396.80
2023-02-19T11:30:44.901Z,98388.80
2023-02-19T11:34:04.903Z,98390.60
2023-02-19T11:37:19.023Z,98375.20
2023-02-19T11:40:42.907Z,98370.40
2023-02-19T11:44:22.348Z,98360.60
2023-02-19T11:48:09.218Z,98366.60
2023-02-19T11:51:43.040Z,98355.80
2023-02-19T11:55:01.078Z,98350.80
2023-02-19T11:58:51.252Z,98355.80
2023-02-19T12:02:11.942Z,98347.40
2023-02-19T12:05:42.669Z,98345.60
2023-02-19T12:09:32.980Z,98344.40
2023-02-19T12:12:58.698Z,98334.20
2023-02-19T12:16:32.857Z,98334.60
2023-02-19T12:20:14.745Z,98325.00
2023-02-19T12:24:11.358Z,98321.80
2023-02-19T12:27:39.970Z,98324.80
2023-02-19T12:31:26.360Z,98330.80
2023-02-19T12:35:08.291Z,98334.60
2023-02-19T12:38:34.132Z,98363.80
2023-02-19T12:41:59.277Z,98356.80
2023-02-19T12:45:21.467Z,98359.60
2023-02-19T12:48:43.469Z,98334.00
2023-02-19T12:51:57.741Z,98333.20
2023-02-19T12:55:27.196Z,98331.40
2023-02-19T12:58:47.868Z,98332.20
2023-02-19T13:02:06.025Z,98332.80
2023-02-19T13:05:53.974Z,98342.60
2023-02-19T13:09:09.252Z,98333.80
2023-02-19T13:12:25.725Z,98327.80
2023-02-19T13:15:41.928Z,98313.40
2023-02-19T13:18:55.369Z,98307.00
2023-02-19T13:22:38.101Z,98308.60
2023-02-19T13:26:23.268Z,98314.40
2023-02-19T13:30:04.727Z,98314.60
2023-02-19T13:33:36.622Z,98321.60
2023-02-19T13:36:45.578Z,98309.40
2023-02-19T13:39:56.722Z,98324.40
2023-02-19T13:43:08.481Z,98319.00
2023-02-19T13:46:25.496Z,98318.80
2023-02-19T13:49:53.314Z,98328.20
2023-02-19T13:53:02.655Z,98339.60
2023-02-19T13:56:44.144Z,98351.80
2023-02-19T13:59:53.815Z,98364.20
2023-02-19T14:03:40.770Z,98371.40
2023-02-19T14:07:47.060Z,98372.60
2023-02-19T14:11:04.705Z,98378.40
2023-02-19T14:14:38.050Z,98380.60
2023-02-19T14:17:47.688Z,98390.00
2023-02-19T14:21:19.545Z,98395.40
2023-02-19T14:24:28.387Z,98407.60
2023-02-19T14:27:36.594Z,98404.40
2023-02-19T14:30:53.283Z,98420.60
2023-02-19T14:37:25.317Z,98428.00
2023-02-19T14:41:13.265Z,98431.80
2023-02-19T14:44:27.419Z,98433.00
2023-02-19T14:47:40.508Z,98427.80
2023-02-19T14:50:56.193Z,98432.20
2023-02-19T14:54:16.077Z,98434.40
2023-02-19T14:57:31.099Z,98431.00
2023-02-19T15:00:41.863Z,98435.00
2023-02-19T15:04:01.198Z,98443.20
2023-02-19T15:07:16.610Z,98443.40
2023-02-19T15:10:25.068Z,98445.00
2023-02-19T15:16:45.046Z,98453.60
2023-02-19T15:19:54.535Z,98449.40
2023-02-19T15:23:07.112Z,98455.60
2023-02-19T15:26:28.145Z,98455.20
2023-02-19T15:29:36.348Z,98462.40
2023-02-19T15:32:52.730Z,98471.00
2023-02-19T15:36:04.238Z,98470.80
2023-02-19T15:39:22.576Z,98487.60
2023-02-19T15:42:33.657Z,98482.80
2023-02-19T15:45:48.318Z,98490.40
2023-02-19T15:49:12.395Z,98501.80
2023-02-19T15:52:50.033Z,98502.40
2023-02-19T15:56:08.537Z,98505.40
2023-02-19T15:59:30.007Z,98515.40
2023-02-19T16:02:39.203Z,98520.40
2023-02-19T16:05:48.583Z,98521.60
2023-02-19T16:09:08.430Z,98521.60
2023-02-19T16:12:28.401Z,98514.80
2023-02-19T16:16:17.977Z,98515.60
2023-02-19T16:19:45.390Z,98517.40
2023-02-19T16:22:58.917Z,98521.80
2023-02-19T16:26:09.766Z,98535.20
2023-02-19T16:29:27.823Z,98541.20
2023-02-19T16:32:39.558Z,98545.80
2023-02-19T16:35:48.432Z,98547.20
2023-02-19T16:39:24.976Z,98552.00
2023-02-19T16:42:34.558Z,98558.00
2023-02-19T16:45:46.892Z,98560.80
2023-02-19T16:48:55.953Z,98570.40
2023-02-19T16:52:07.178Z,98575.00
2023-02-19T16:55:18.773Z,98575.60
2023-02-19T16:58:26.920Z,98581.00
2023-02-19T17:01:35.774Z,98580.20
2023-02-19T17:04:44.122Z,98586.20
2023-02-19T17:07:52.533Z,98594.40
2023-02-19T17:11:02.206Z,98590.20
2023-02-19T17:14:10.499Z,98581.20
2023-02-19T17:21:04.744Z,98582.40
2023-02-19T17:24:14.063Z,98579.00
2023-02-19T17:27:23.470Z,98579.20
2023-02-19T17:30:34.231Z,98582.80
2023-02-19T17:33:42.893Z,98602.40
2023-02-19T17:36:52.864Z,98610.00
2023-02-19T17:40:00.988Z,98614.60
2023-02-19T17:43:10.474Z,98609.00
2023-02-19T17:46:22.247Z,98622.60
2023-02-19T17:49:30.524Z,98619.80
2023-02-19T17:52:38.814Z,98618.20
2023-02-19T17:55:47.418Z,98613.80
2023-02-19T17:58:56.357Z,98623.60
2023-02-19T18:02:06.778Z,98625.20
2023-02-19T18:05:15.419Z,98624.80
2023-02-19T18:08:23.361Z,98622.20
2023-02-19T18:11:31.348Z,98631.00
2023-02-19T18:14:39.407Z,98637.80
2023-02-19T18:17:48.172Z,98639.60
2023-02-19T18:20:57.757Z,98648.80
2023-02-19T18:24:06.385Z,98637.20
2023-02-19T18:27:15.549Z,98635.80
2023-02-19T18:30:24.956Z,98639.20
2023-02-19T18:33:34.128Z,98638.00
2023-02-19T18:36:45.341Z,98647.40
2023-02-19T18:39:53.851Z,98642.60
2023-02-19T18:43:11.479Z,98642.60
2023-02-19T18:46:22.025Z,98647.60
2023-02-19T18:49:32.520Z,98649.80
2023-02-19T18:52:40.510Z,98658.00
2023-02-19T18:55:49.083Z,98663.20
2023-02-19T18:58:57.146Z,98673.40
2023-02-19T19:02:07.888Z,98680.80
2023-02-19T19:05:17.681Z,98691.40
2023-02-19T19:08:27.796Z,98690.40
2023-02-19T19:11:37.323Z,98702.00
2023-02-19T19:14:45.880Z,98702.80
2023-02-19T19:17:55.108Z,98695.60
2023-02-19T19:21:04.381Z,98689.20
2023-02-19T19:24:13.558Z,98690.40
2023-02-19T19:27:23.027Z,98695.00
2023-02-19T19:30:33.783Z,98692.60
2023-02-19T19:33:41.996Z,98692.60
2023-02-19T19:36:50.022Z,98687.60
2023-02-19T19:39:58.706Z,98698.60
2023-02-19T19:43:08.189Z,98697.20
2023-02-19T19:46:20.031Z,98703.00
2023-02-19T19:49:29.601Z,98716.60
2023-02-19T19:52:40.157Z,98716.80
2023-02-19T19:55:48.587Z,98719.40
2023-02-19T19:58:57.006Z,98720.80
2023-02-19T20:02:06.909Z,98724.60
2023-02-19T20:05:16.971Z,98722.60
2023-02-19T20:08:26.908Z,98728.20
2023-02-19T20:11:34.718Z,98737.40
2023-02-19T20:14:47.206Z,98747.40
2023-02-19T20:17:55.407Z,98764.40
2023-02-19T20:21:04.696Z,98773.80
2023-02-19T20:24:15.094Z,98789.00
2023-02-19T20:27:27.068Z,98795.80
2023-02-19T20:30:37.493Z,98804.20
2023-02-19T20:33:45.719Z,98814.60
2023-02-19T20:36:54.170Z,98829.20
2023-02-19T20:40:02.340Z,98837.60
2023-02-19T20:43:10.724Z,98843.60
2023-02-19T20:46:19.001Z,98867.40
2023-02-19T20:49:29.449Z,98876.80
2023-02-19T20:52:37.512Z,98896.80
2023-02-19T20:55:45.840Z,98911.20
2023-02-19T20:58:53.880Z,98927.60
2023-02-19T21:02:02.585Z,98933.40
2023-02-19T21:05:11.657Z,98943.20
2023-02-19T21:08:19.639Z,98960.60
2023-02-19T21:11:27.782Z,98963.80
2023-02-19T21:14:35.787Z,98968.60
2023-02-19T21:17:47.873Z,98977.20
2023-02-19T21:20:57.093Z,98971.20
2023-02-19T21:24:06.469Z,98981.20
2023-02-19T21:27:14.293Z,98980.60
2023-02-19T21:30:23.080Z,98984.60
2023-02-19T21:33:31.241Z,98987.20
2023-02-19T21:36:40.066Z,98993.60
2023-02-19T21:39:48.373Z,98996.20
2023-02-19T21:42:56.536Z,98992.40
2023-02-19T21:46:04.425Z,98995.40
2023-02-19T21:49:12.894Z,98998.00
2023-02-19T21:52:21.092Z,98993.00
2023-02-19T21:55:29.469Z,98998.40
2023-02-19T21:58:37.393Z,99009.40
2023-02-19T22:01:45.921Z,99003.40
2023-02-19T22:04:58.205Z,99005.40
2023-02-19T22:08:06.160Z,99013.20
2023-02-19T22:11:14.429Z,99022.60
2023-02-19T22:14:22.532Z,99025.20
2023-02-19T22:17:30.569Z,99030.00
2023-02-19T22:20:39.611Z,99039.00
2023-02-19T22:23:51.078Z,99040.60
2023-02-19T22:27:01.757Z,99049.00
2023-02-19T22:30:13.726Z,99051.80
2023-02-19T22:33:21.656Z,99055.60
2023-02-19T22:36:32.269Z,99055.80
2023-02-19T22:39:41.700Z,99062.60
2023-02-19T22:42:50.371Z,99062.40
2023-02-19T22:45:58.496Z,99057.20
2023-02-19T22:49:08.716Z,99057.00
2023-02-19T22:52:17.660Z,99058.80
2023-02-19T22:55:26.418Z,99052.20
2023-02-19T22:58:34.938Z,99054.80
2023-02-19T23:01:43.036Z,99056.80
2023-02-19T23:04:51.267Z,99063.60
2023-02-19T23:07:59.895Z,99059.00
2023-02-19T23:11:07.881Z,99064.20
2023-02-19T23:14:16.642Z,99068.80
2023-02-19T23:17:24.822Z,99066.60
2023-02-19T23:20:32.775Z,99070.40
2023-02-19T23:23:41.560Z,99078.40
2023-02-19T23:26:52.891Z,99078.00
2023-02-19T23:30:01.155Z,99077.20
2023-02-19T23:33:09.267Z,99080.20
2023-02-19T23:36:18.180Z,99079.40
2023-02-19T23:39:26.698Z,99081.00
2023-02-19T23:42:34.507Z,99082.00
2023-02-19T23:45:42.762Z,99085.60
2023-02-19T23:48:50.978Z,99085.80
2023-02-19T23:51:59.454Z,99084.40
2023-02-19T23:55:09.506Z,99087.60
2023-02-19T23:58:18.152Z,99090.60
